createdAt,value
2023-03-03T00:01:40.208Z,0.90
2023-03-03T00:04:08.476Z,0.90
2023-03-03T00:06:36.698Z,0.80
2023-03-03T00:09:05.204Z,0.80
2023-03-03T00:11:33.475Z,0.80
2023-03-03T00:14:01.652Z,0.80
2023-03-03T00:16:38.088Z,0.80
2023-03-03T00:19:15.805Z,0.70
2023-03-03T00:21:47.345Z,0.70
2023-03-03T00:24:25.721Z,0.70
2023-03-03T00:26:56.427Z,0.70
2023-03-03T00:29:46.876Z,0.60
2023-03-03T00:32:26.016Z,0.60
2023-03-03T00:34:57.086Z,0.60
2023-03-03T00:37:33.946Z,0.60
2023-03-03T00:40:23.823Z,0.50
2023-03-03T00:42:54.969Z,0.50
2023-03-03T00:45:30.523Z,0.50
2023-03-03T00:48:17.770Z,0.50
2023-03-03T00:50:46.010Z,0.50
2023-03-03T00:53:18.124Z,0.50
2023-03-03T00:55:48.182Z,0.50
2023-03-03T00:58:17.867Z,0.50
2023-03-03T01:00:48.986Z,0.50
2023-03-03T01:03:24.667Z,0.60
2023-03-03T01:05:54.021Z,0.60
2023-03-03T01:08:23.561Z,0.60
2023-03-03T01:10:55.598Z,0.70
2023-03-03T01:13:28.233Z,0.70
2023-03-03T01:15:56.843Z,0.70
2023-03-03T01:18:26.933Z,0.70
2023-03-03T01:20:55.363Z,0.70
2023-03-03T01:23:23.553Z,0.70
2023-03-03T01:25:52.215Z,0.80
2023-03-03T01:28:21.110Z,0.80
2023-03-03T01:30:49.392Z,0.80
2023-03-03T01:33:17.792Z,0.80
2023-03-03T01:35:49.166Z,0.90
2023-03-03T01:38:17.693Z,0.90
2023-03-03T01:40:56.417Z,0.90
2023-03-03T01:43:27.414Z,0.90
2023-03-03T01:46:38.033Z,1.00
2023-03-03T01:49:14.766Z,1.10
2023-03-03T01:51:51.670Z,1.10
2023-03-03T01:54:27.489Z,1.20
2023-03-03T01:57:02.158Z,1.20
2023-03-03T01:59:36.553Z,1.30
2023-03-03T02:02:06.112Z,1.30
2023-03-03T02:04:36.608Z,1.30
2023-03-03T02:07:11.111Z,1.40
2023-03-03T02:09:52.497Z,1.30
2023-03-03T02:12:27.130Z,1.30
2023-03-03T02:14:55.505Z,1.20
2023-03-03T02:17:24.132Z,1.20
2023-03-03T02:20:03.014Z,1.10
2023-03-03T02:22:45.262Z,1.00
2023-03-03T02:25:25.234Z,1.00
2023-03-03T02:27:57.105Z,0.90
2023-03-03T02:30:27.130Z,0.80
2023-03-03T02:32:56.159Z,0.80
2023-03-03T02:35:33.901Z,0.70
2023-03-03T02:38:18.507Z,0.60
2023-03-03T02:41:01.040Z,0.60
2023-03-03T02:43:40.255Z,0.50
2023-03-03T02:46:08.590Z,0.50
2023-03-03T02:48:36.817Z,0.40
2023-03-03T02:51:05.591Z,0.40
2023-03-03T02:53:34.199Z,0.30
2023-03-03T02:56:04.309Z,0.30
2023-03-03T02:58:33.875Z,0.30
2023-03-03T03:01:03.754Z,0.30
2023-03-03T03:03:32.410Z,0.20
2023-03-03T03:06:03.383Z,0.20
2023-03-03T03:08:31.812Z,0.10
2023-03-03T03:11:00.225Z,0.10
2023-03-03T03:13:30.364Z,0.00
2023-03-03T03:16:00.921Z,0.00
2023-03-03T03:18:29.644Z,0.00
2023-03-03T03:20:59.103Z,0.00
2023-03-03T03:23:27.584Z,-0.10
2023-03-03T03:25:57.043Z,-0.10
2023-03-03T03:28:29.474Z,-0.20
2023-03-03T03:30:59.781Z,-0.20
2023-03-03T03:33:29.073Z,-0.30
2023-03-03T03:35:59.203Z,-0.30
2023-03-03T03:38:29.719Z,-0.30
2023-03-03T03:40:58.856Z,-0.30
2023-03-03T03:43:28.645Z,-0.40
2023-03-03T03:45:57.210Z,-0.40
2023-03-03T03:48:28.481Z,-0.40
2023-03-03T03:50:57.743Z,-0.40
2023-03-03T03:53:28.149Z,-0.50
2023-03-03T03:55:56.373Z,-0.50
2023-03-03T03:58:24.666Z,-0.50
2023-03-03T04:01:04.283Z,-0.60
2023-03-03T04:03:34.591Z,-0.60
2023-03-03T04:06:06.208Z,-0.60
2023-03-03T04:08:35.699Z,-0.70
2023-03-03T04:11:04.478Z,-0.70
2023-03-03T04:13:35.167Z,-0.70
2023-03-03T04:16:05.468Z,-0.70
2023-03-03T04:18:36.189Z,-0.70
2023-03-03T04:21:05.701Z,-0.80
2023-03-03T04:23:34.575Z,-0.80
2023-03-03T04:26:03.706Z,-0.80
2023-03-03T04:28:32.027Z,-0.90
2023-03-03T04:31:01.151Z,-0.90
2023-03-03T04:33:31.882Z,-0.90
2023-03-03T04:36:02.732Z,-0.90
2023-03-03T04:38:31.000Z,-1.00
2023-03-03T04:40:59.248Z,-1.00
2023-03-03T04:43:29.933Z,-1.00
2023-03-03T04:45:58.817Z,-1.00
2023-03-03T04:48:27.390Z,-1.00
2023-03-03T04:50:55.963Z,-1.00
2023-03-03T04:53:25.958Z,-1.00
2023-03-03T04:55:55.251Z,-1.00
2023-03-03T04:58:24.293Z,-1.10
2023-03-03T05:00:57.663Z,-1.10
2023-03-03T05:03:28.807Z,-1.10
2023-03-03T05:05:57.109Z,-1.10
2023-03-03T05:08:26.782Z,-1.20
2023-03-03T05:10:56.162Z,-1.20
2023-03-03T05:13:24.348Z,-1.20
2023-03-03T05:15:55.246Z,-1.20
2023-03-03T05:18:25.258Z,-1.20
2023-03-03T05:20:54.207Z,-1.20
2023-03-03T05:23:22.766Z,-1.20
2023-03-03T05:25:52.520Z,-1.30
2023-03-03T05:28:20.731Z,-1.30
2023-03-03T05:30:48.949Z,-1.30
2023-03-03T05:33:20.234Z,-1.30
2023-03-03T05:35:48.608Z,-1.30
2023-03-03T05:38:16.749Z,-1.30
2023-03-03T05:40:45.274Z,-1.30
2023-03-03T05:43:14.835Z,-1.30
2023-03-03T05:45:43.124Z,-1.30
2023-03-03T05:48:11.941Z,-1.30
2023-03-03T05:50:41.006Z,-1.40
2023-03-03T05:53:09.184Z,-1.30
2023-03-03T05:55:37.335Z,-1.40
2023-03-03T05:58:05.652Z,-1.40
2023-03-03T06:00:35.252Z,-1.40
2023-03-03T06:03:03.575Z,-1.40
2023-03-03T06:05:31.752Z,-1.40
2023-03-03T06:08:00.377Z,-1.40
2023-03-03T06:10:28.928Z,-1.40
2023-03-03T06:13:00.905Z,-1.40
2023-03-03T06:15:29.595Z,-1.40
2023-03-03T06:17:59.285Z,-1.50
2023-03-03T06:20:27.629Z,-1.40
2023-03-03T06:22:55.900Z,-1.40
2023-03-03T06:25:24.174Z,-1.40
2023-03-03T06:27:52.384Z,-1.40
2023-03-03T06:30:21.574Z,-1.40
2023-03-03T06:32:49.808Z,-1.40
2023-03-03T06:35:19.621Z,-1.40
2023-03-03T06:37:50.661Z,-1.40
2023-03-03T06:40:19.241Z,-1.40
2023-03-03T06:42:47.508Z,-1.30
2023-03-03T06:45:16.768Z,-1.20
2023-03-03T06:47:45.015Z,-1.10
2023-03-03T06:50:14.247Z,-1.00
2023-03-03T06:52:43.743Z,-0.90
2023-03-03T06:55:20.105Z,-0.70
2023-03-03T06:57:48.465Z,-0.50
2023-03-03T07:00:24.363Z,-0.40
2023-03-03T07:03:00.362Z,-0.20
2023-03-03T07:05:30.572Z,-0.10
2023-03-03T07:08:00.599Z,0.00
2023-03-03T07:10:31.499Z,0.10
2023-03-03T07:13:17.983Z,0.20
2023-03-03T07:15:47.100Z,0.30
2023-03-03T07:18:35.206Z,0.40
2023-03-03T07:21:19.750Z,0.60
2023-03-03T07:23:52.581Z,0.70
2023-03-03T07:26:24.908Z,0.80
2023-03-03T07:28:56.942Z,1.00
2023-03-03T07:31:32.449Z,1.10
2023-03-03T07:34:06.037Z,1.30
2023-03-03T07:36:38.587Z,1.40
2023-03-03T07:39:31.575Z,1.60
2023-03-03T07:42:28.775Z,1.80
2023-03-03T07:45:28.569Z,1.90
2023-03-03T07:48:10.692Z,2.00
2023-03-03T07:50:38.914Z,2.10
2023-03-03T07:53:25.359Z,2.10
2023-03-03T07:55:55.768Z,2.20
2023-03-03T07:58:38.639Z,2.20
2023-03-03T08:01:42.640Z,2.30
2023-03-03T08:04:25.976Z,2.40
2023-03-03T08:06:57.698Z,2.50
2023-03-03T08:09:45.343Z,2.60
2023-03-03T08:12:36.313Z,2.70
2023-03-03T08:15:20.731Z,2.80
2023-03-03T08:17:50.903Z,2.90
2023-03-03T08:20:55.575Z,3.00
2023-03-03T08:23:24.077Z,3.00
2023-03-03T08:25:54.116Z,3.10
2023-03-03T08:28:24.477Z,3.20
2023-03-03T08:31:02.682Z,3.30
2023-03-03T08:33:37.900Z,3.40
2023-03-03T08:36:09.416Z,3.50
2023-03-03T08:38:37.852Z,3.60
2023-03-03T08:41:07.409Z,3.70
2023-03-03T08:43:37.155Z,3.70
2023-03-03T08:46:10.121Z,3.80
2023-03-03T08:48:39.182Z,3.90
2023-03-03T08:51:08.287Z,3.90
2023-03-03T08:53:38.259Z,4.00
2023-03-03T08:56:07.965Z,4.10
2023-03-03T08:58:37.462Z,4.20
2023-03-03T09:01:06.326Z,4.30
2023-03-03T09:03:34.536Z,4.40
2023-03-03T09:06:02.831Z,4.50
2023-03-03T09:08:31.122Z,4.60
2023-03-03T09:10:59.371Z,4.70
2023-03-03T09:13:30.572Z,4.90
2023-03-03T09:16:01.200Z,5.00
2023-03-03T09:18:37.446Z,5.10
2023-03-03T09:21:23.686Z,5.20
2023-03-03T09:23:57.232Z,5.40
2023-03-03T09:26:30.606Z,5.50
2023-03-03T09:29:19.993Z,5.60
2023-03-03T09:31:52.653Z,5.80
2023-03-03T09:34:32.039Z,5.90
2023-03-03T09:37:00.614Z,6.10
2023-03-03T09:39:32.547Z,6.20
2023-03-03T09:42:44.434Z,6.30
2023-03-03T09:45:54.045Z,6.40
2023-03-03T09:48:53.476Z,6.60
2023-03-03T09:52:04.605Z,6.80
2023-03-03T09:54:54.235Z,6.90
2023-03-03T09:57:33.804Z,7.00
2023-03-03T10:00:26.943Z,7.20
2023-03-03T10:03:23.167Z,7.40
2023-03-03T10:06:00.784Z,7.50
2023-03-03T10:08:51.405Z,7.70
2023-03-03T10:11:30.252Z,7.90
2023-03-03T10:14:42.000Z,8.10
2023-03-03T10:17:31.792Z,8.20
2023-03-03T10:20:24.004Z,8.40
2023-03-03T10:22:57.710Z,8.40
2023-03-03T10:25:42.402Z,8.50
2023-03-03T10:28:50.460Z,8.70
2023-03-03T10:31:36.607Z,8.90
2023-03-03T10:34:28.563Z,9.20
2023-03-03T10:37:07.476Z,9.50
2023-03-03T10:40:16.760Z,9.70
2023-03-03T10:43:31.894Z,10.00
2023-03-03T10:46:34.780Z,10.30
2023-03-03T10:49:33.373Z,10.60
2023-03-03T10:52:34.848Z,10.80
2023-03-03T10:55:38.269Z,11.00
2023-03-03T10:58:47.595Z,11.30
2023-03-03T11:01:31.280Z,11.50
2023-03-03T11:04:29.162Z,11.60
2023-03-03T11:07:08.083Z,11.70
2023-03-03T11:09:55.899Z,11.90
2023-03-03T11:12:47.979Z,12.00
2023-03-03T11:15:35.642Z,12.10
2023-03-03T11:18:30.391Z,12.40
2023-03-03T11:21:14.098Z,12.60
2023-03-03T11:24:03.060Z,12.80
2023-03-03T11:27:13.060Z,13.10
2023-03-03T11:30:02.342Z,13.40
2023-03-03T11:32:44.848Z,13.50
2023-03-03T11:35:26.132Z,13.70
2023-03-03T11:38:14.042Z,13.90
2023-03-03T11:40:52.142Z,14.10
2023-03-03T11:43:36.565Z,14.20
2023-03-03T11:46:12.741Z,14.30
2023-03-03T11:48:54.973Z,14.50
2023-03-03T11:51:39.832Z,14.70
2023-03-03T11:54:20.897Z,15.00
2023-03-03T11:56:50.326Z,15.20
2023-03-03T11:59:45.379Z,15.40
2023-03-03T12:02:46.436Z,15.60
2023-03-03T12:05:28.991Z,15.80
2023-03-03T12:08:13.645Z,16.10
2023-03-03T12:10:55.257Z,16.20
2023-03-03T12:13:34.857Z,16.20
2023-03-03T12:16:14.747Z,16.40
2023-03-03T12:19:09.009Z,16.50
2023-03-03T12:21:58.173Z,16.70
2023-03-03T12:24:45.021Z,17.00
2023-03-03T12:27:25.478Z,17.50
2023-03-03T12:30:13.148Z,17.80
2023-03-03T12:33:17.772Z,18.30
2023-03-03T12:36:02.099Z,18.60
2023-03-03T12:38:46.778Z,18.70
2023-03-03T12:41:27.667Z,19.10
2023-03-03T12:44:09.595Z,19.20
2023-03-03T12:46:47.418Z,19.40
2023-03-03T12:49:15.658Z,19.70
2023-03-03T12:52:10.462Z,19.90
2023-03-03T12:55:06.657Z,20.20
2023-03-03T12:57:48.383Z,20.50
2023-03-03T13:00:49.871Z,20.70
2023-03-03T13:03:49.654Z,21.00
2023-03-03T13:06:31.254Z,21.00
2023-03-03T13:09:19.694Z,21.10
2023-03-03T13:12:24.017Z,21.30
2023-03-03T13:15:00.361Z,21.70
2023-03-03T13:17:36.328Z,21.90
2023-03-03T13:20:17.956Z,21.90
2023-03-03T13:22:53.074Z,21.90
2023-03-03T13:25:45.547Z,22.00
2023-03-03T13:28:23.325Z,22.20
2023-03-03T13:30:57.098Z,22.50
2023-03-03T13:33:30.138Z,22.60
2023-03-03T13:36:02.978Z,22.80
2023-03-03T13:38:36.184Z,23.20
2023-03-03T13:41:16.892Z,23.40
2023-03-03T13:43:50.557Z,23.50
2023-03-03T13:46:33.777Z,23.60
2023-03-03T13:49:30.091Z,23.80
2023-03-03T13:52:05.310Z,24.00
2023-03-03T13:54:55.667Z,24.10
2023-03-03T13:58:06.903Z,24.00
2023-03-03T14:00:50.848Z,24.00
2023-03-03T14:04:15.012Z,23.30
2023-03-03T14:06:54.867Z,23.10
2023-03-03T14:09:45.899Z,22.50
2023-03-03T14:12:27.348Z,22.20
2023-03-03T14:15:07.990Z,21.80
2023-03-03T14:17:50.346Z,21.60
2023-03-03T14:20:28.041Z,21.30
2023-03-03T14:23:02.039Z,21.20
2023-03-03T14:26:01.284Z,20.60
2023-03-03T14:28:38.285Z,20.20
2023-03-03T14:31:22.299Z,19.90
2023-03-03T14:34:03.080Z,20.30
2023-03-03T14:36:38.535Z,20.80
2023-03-03T14:39:33.369Z,20.90
2023-03-03T14:42:03.330Z,20.80
2023-03-03T14:44:38.042Z,20.40
2023-03-03T14:47:29.873Z,20.10
2023-03-03T14:50:00.607Z,20.10
2023-03-03T14:52:31.652Z,20.40
2023-03-03T14:55:05.062Z,20.30
2023-03-03T14:57:46.565Z,20.50
2023-03-03T15:00:36.249Z,21.10
2023-03-03T15:03:23.565Z,21.60
2023-03-03T15:05:53.470Z,22.00
2023-03-03T15:08:33.623Z,22.30
2023-03-03T15:11:20.388Z,22.30
2023-03-03T15:13:50.000Z,22.30
2023-03-03T15:16:22.441Z,22.30
2023-03-03T15:19:38.961Z,22.40
2023-03-03T15:22:20.084Z,22.30
2023-03-03T15:25:02.015Z,22.20
2023-03-03T15:27:37.244Z,22.20
2023-03-03T15:30:21.356Z,22.20
2023-03-03T15:33:00.074Z,22.30
2023-03-03T15:35:45.987Z,22.10
2023-03-03T15:38:35.458Z,21.90
2023-03-03T15:41:25.592Z,21.90
2023-03-03T15:44:11.428Z,21.90
2023-03-03T15:47:01.710Z,21.70
2023-03-03T15:50:08.911Z,21.30
2023-03-03T15:53:01.672Z,20.90
2023-03-03T15:55:48.358Z,20.80
2023-03-03T15:59:09.343Z,20.60
2023-03-03T16:01:46.753Z,20.50
2023-03-03T16:04:19.616Z,20.30
2023-03-03T16:06:58.479Z,20.00
2023-03-03T16:09:48.372Z,19.30
2023-03-03T16:12:30.918Z,18.30
2023-03-03T16:15:22.607Z,17.40
2023-03-03T16:18:03.644Z,16.60
2023-03-03T16:20:46.478Z,15.90
2023-03-03T16:23:35.906Z,15.40
2023-03-03T16:26:19.117Z,14.90
2023-03-03T16:29:17.756Z,14.30
2023-03-03T16:31:54.400Z,13.90
2023-03-03T16:34:34.779Z,13.50
2023-03-03T16:37:16.284Z,13.30
2023-03-03T16:39:56.496Z,12.90
2023-03-03T16:42:32.697Z,12.60
2023-03-03T16:45:20.996Z,12.30
2023-03-03T16:48:17.622Z,12.00
2023-03-03T16:50:56.361Z,11.80
2023-03-03T16:53:52.312Z,11.50
2023-03-03T16:56:24.924Z,11.20
2023-03-03T16:59:43.851Z,11.00
2023-03-03T17:02:38.855Z,10.70
2023-03-03T17:05:21.661Z,10.50
2023-03-03T17:08:12.822Z,10.30
2023-03-03T17:10:52.078Z,10.00
2023-03-03T17:13:50.767Z,9.80
2023-03-03T17:16:39.874Z,9.60
2023-03-03T17:19:35.378Z,9.40
2023-03-03T17:22:23.897Z,9.20
2023-03-03T17:25:13.865Z,9.00
2023-03-03T17:28:06.553Z,8.80
2023-03-03T17:30:46.758Z,8.60
2023-03-03T17:33:52.514Z,8.40
2023-03-03T17:36:39.326Z,8.20
2023-03-03T17:39:51.096Z,8.00
2023-03-03T17:42:30.539Z,7.90
2023-03-03T17:45:07.297Z,7.80
2023-03-03T17:47:57.458Z,7.70
2023-03-03T17:50:46.394Z,7.60
2023-03-03T17:53:48.805Z,7.40
2023-03-03T17:56:23.965Z,7.30
2023-03-03T17:59:24.932Z,7.20
2023-03-03T18:02:35.618Z,7.20
2023-03-03T18:05:47.317Z,7.00
2023-03-03T18:08:44.393Z,6.90
2023-03-03T18:11:41.970Z,6.80
2023-03-03T18:14:55.883Z,6.70
2023-03-03T18:18:02.397Z,6.60
2023-03-03T18:21:00.091Z,6.50
2023-03-03T18:23:44.679Z,6.40
2023-03-03T18:26:37.655Z,6.30
2023-03-03T18:29:20.397Z,6.20
2023-03-03T18:32:14.371Z,6.00
2023-03-03T18:34:43.622Z,5.90
2023-03-03T18:37:45.116Z,5.80
2023-03-03T18:40:34.901Z,5.70
2023-03-03T18:43:52.080Z,5.60
2023-03-03T18:46:55.204Z,5.50
2023-03-03T18:49:59.314Z,5.40
2023-03-03T18:52:31.840Z,5.30
2023-03-03T18:55:27.131Z,5.20
2023-03-03T18:58:37.968Z,5.10
2023-03-03T19:01:43.428Z,5.00
2023-03-03T19:04:25.276Z,5.00
2023-03-03T19:07:26.595Z,4.90
2023-03-03T19:10:01.693Z,4.80
2023-03-03T19:12:52.812Z,4.80
2023-03-03T19:15:52.010Z,4.70
2023-03-03T19:18:25.535Z,4.60
2023-03-03T19:21:03.831Z,4.50
2023-03-03T19:23:51.584Z,4.40
2023-03-03T19:26:47.141Z,4.40
2023-03-03T19:30:22.881Z,4.30
2023-03-03T19:33:40.683Z,4.20
2023-03-03T19:36:37.718Z,4.10
2023-03-03T19:39:35.370Z,4.00
2023-03-03T19:42:17.216Z,3.90
2023-03-03T19:45:11.668Z,3.90
2023-03-03T19:47:47.480Z,3.80
2023-03-03T19:50:32.212Z,3.70
2023-03-03T19:53:15.202Z,3.60
2023-03-03T19:56:05.264Z,3.60
2023-03-03T19:58:51.482Z,3.50
2023-03-03T20:01:30.020Z,3.40
2023-03-03T20:04:31.351Z,3.30
2023-03-03T20:07:17.279Z,3.20
2023-03-03T20:09:58.158Z,3.20
2023-03-03T20:12:40.737Z,3.10
2023-03-03T20:15:18.925Z,3.00
2023-03-03T20:18:20.642Z,2.90
2023-03-03T20:21:13.549Z,2.80
2023-03-03T20:24:00.778Z,2.80
2023-03-03T20:26:42.428Z,2.70
2023-03-03T20:29:46.016Z,2.70
2023-03-03T20:32:31.159Z,2.60
2023-03-03T20:35:21.115Z,2.50
2023-03-03T20:38:04.617Z,2.50
2023-03-03T20:40:43.263Z,2.40
2023-03-03T20:43:30.929Z,2.30
2023-03-03T20:46:11.794Z,2.30
2023-03-03T20:49:14.798Z,2.20
2023-03-03T20:51:53.722Z,2.10
2023-03-03T20:54:33.382Z,2.00
2023-03-03T20:57:11.535Z,2.00
2023-03-03T20:59:49.783Z,1.90
2023-03-03T21:02:27.890Z,1.80
2023-03-03T21:05:16.604Z,1.80
2023-03-03T21:07:57.487Z,1.70
2023-03-03T21:10:28.882Z,1.70
2023-03-03T21:13:00.090Z,1.60
2023-03-03T21:15:31.821Z,1.60
2023-03-03T21:18:01.231Z,1.50
2023-03-03T21:20:35.119Z,1.40
2023-03-03T21:23:04.326Z,1.40
2023-03-03T21:25:52.173Z,1.40
2023-03-03T21:28:25.639Z,1.30
2023-03-03T21:31:11.086Z,1.30
2023-03-03T21:33:53.879Z,1.20
2023-03-03T21:36:25.800Z,1.20
2023-03-03T21:38:55.170Z,1.20
2023-03-03T21:41:23.565Z,1.10
2023-03-03T21:43:54.545Z,1.10
2023-03-03T21:46:25.303Z,1.00
2023-03-03T21:48:53.878Z,1.00
2023-03-03T21:51:24.411Z,1.00
2023-03-03T21:53:53.029Z,0.90
2023-03-03T21:56:21.246Z,0.90
2023-03-03T21:58:49.564Z,0.80
2023-03-03T22:01:17.889Z,0.80
2023-03-03T22:03:46.714Z,0.80
2023-03-03T22:06:15.010Z,0.70
2023-03-03T22:08:44.625Z,0.70
2023-03-03T22:11:15.223Z,0.70
2023-03-03T22:13:43.740Z,0.60
2023-03-03T22:16:12.692Z,0.60
2023-03-03T22:18:40.998Z,0.60
2023-03-03T22:21:09.343Z,0.50
2023-03-03T22:23:37.561Z,0.50
2023-03-03T22:26:07.670Z,0.50
2023-03-03T22:28:36.044Z,0.40
2023-03-03T22:31:04.541Z,0.40
2023-03-03T22:33:32.876Z,0.40
2023-03-03T22:36:01.080Z,0.30
2023-03-03T22:38:29.408Z,0.30
2023-03-03T22:40:57.692Z,0.20
2023-03-03T22:43:29.645Z,0.20
2023-03-03T22:45:58.293Z,0.20
2023-03-03T22:48:28.311Z,0.20
2023-03-03T22:50:56.595Z,0.10
2023-03-03T22:53:26.598Z,0.10
2023-03-03T22:55:55.353Z,0.10
2023-03-03T22:58:25.460Z,0.00
2023-03-03T23:00:55.652Z,0.00
2023-03-03T23:03:24.162Z,0.00
2023-03-03T23:05:52.651Z,0.00
2023-03-03T23:08:22.188Z,-0.10
2023-03-03T23:10:50.415Z,-0.10
2023-03-03T23:13:18.890Z,-0.10
2023-03-03T23:15:47.129Z,-0.10
2023-03-03T23:18:16.683Z,-0.20
2023-03-03T23:20:48.112Z,-0.20
2023-03-03T23:23:16.346Z,-0.20
2023-03-03T23:25:44.557Z,-0.30
2023-03-03T23:28:15.498Z,-0.30
2023-03-03T23:30:44.655Z,-0.30
2023-03-03T23:33:12.974Z,-0.30
2023-03-03T23:35:45.196Z,-0.30
2023-03-03T23:38:17.443Z,-0.40
2023-03-03T23:40:47.555Z,-0.40
2023-03-03T23:43:16.188Z,-0.40
2023-03-03T23:45:44.378Z,-0.40
2023-03-03T23:48:12.557Z,-0.40
2023-03-03T23:50:42.205Z,-0.50
2023-03-03T23:53:10.354Z,-0.50
2023-03-03T23:55:38.652Z,-0.50
2023-03-03T23:58:07.184Z,-0.50
